Time;durP1;ratioP1;P1;durP2;ratioP2;P2;SDS_P1;SDS_P2;PMS_P1;PMS_P2;Temp;Humidity;BMP_temperature;BMP_pressure;BME280_temperature;BME280_humidity;BME280_pressure;Samples;Min_cycle;Max_cycle;Signal;HPM_P1;HPM_P2
2023/09/28 00:00:37;;;;;;;13.68;12.00;;;18.20;99.90;;;;;;5068763;28;20040;-72
2023/09/28 00:03:04;;;;;;;13.32;11.95;;;18.10;99.90;;;;;;5067872;28;20040;-72
2023/09/28 00:05:30;;;;;;;13.00;11.70;;;18.10;99.90;;;;;;5070637;28;20547;-72
2023/09/28 00:07:56;;;;;;;14.80;12.60;;;18.00;99.90;;;;;;5064629;28;20409;-72
2023/09/28 00:10:23;;;;;;;12.43;11.23;;;18.00;99.90;;;;;;5041621;28;20119;-70
2023/09/28 00:12:50;;;;;;;12.93;11.60;;;18.00;99.90;;;;;;5068236;28;20040;-72
2023/09/28 00:15:17;;;;;;;13.68;11.98;;;17.90;99.90;;;;;;5050697;28;20036;-72
2023/09/28 00:17:45;;;;;;;12.98;11.77;;;17.90;99.90;;;;;;5071686;28;20060;-72
2023/09/28 00:20:13;;;;;;;12.23;10.95;;;17.90;99.90;;;;;;5066399;28;20052;-72
2023/09/28 00:22:41;;;;;;;11.88;10.65;;;17.90;99.90;;;;;;5068098;28;20040;-72
2023/09/28 00:25:11;;;;;;;12.20;11.00;;;17.80;99.90;;;;;;5046910;28;20095;-72
2023/09/28 00:27:38;;;;;;;12.55;11.02;;;17.80;99.90;;;;;;5069601;28;20045;-72
2023/09/28 00:30:12;;;;;;;11.85;10.68;;;17.80;99.90;;;;;;5066848;28;20563;-72
2023/09/28 00:32:38;;;;;;;12.70;11.38;;;17.80;99.90;;;;;;5040932;28;20033;-72
2023/09/28 00:35:05;;;;;;;13.63;10.43;;;17.80;99.90;;;;;;5035062;28;20048;-72
2023/09/28 00:37:32;;;;;;;13.10;10.60;;;17.80;99.90;;;;;;5066143;28;20109;-71
2023/09/28 00:39:58;;;;;;;11.55;10.45;;;17.80;99.90;;;;;;5037331;28;20055;-72
2023/09/28 00:42:27;;;;;;;12.05;10.85;;;17.80;99.90;;;;;;5052674;28;20053;-72
2023/09/28 00:44:53;;;;;;;11.48;10.38;;;17.80;99.90;;;;;;5067746;28;20041;-73
2023/09/28 00:47:19;;;;;;;11.75;10.20;;;17.80;99.90;;;;;;5051530;28;20064;-72
2023/09/28 00:49:46;;;;;;;11.50;10.40;;;17.80;99.90;;;;;;5063542;28;20403;-73
2023/09/28 00:52:16;;;;;;;11.10;9.90;;;17.80;99.90;;;;;;5067396;28;20098;-72
2023/09/28 00:54:45;;;;;;;11.48;10.27;;;17.80;99.90;;;;;;5068901;28;20052;-72
2023/09/28 00:57:12;;;;;;;14.07;10.75;;;17.80;99.90;;;;;;5068071;28;20059;-72
2023/09/28 00:59:37;;;;;;;11.95;10.70;;;17.90;99.90;;;;;;5065285;28;20066;-72
2023/09/28 01:02:03;;;;;;;11.95;10.75;;;17.80;99.90;;;;;;5054899;28;20032;-72
2023/09/28 01:04:29;;;;;;;12.10;10.80;;;17.90;99.90;;;;;;5053083;28;20149;-73
2023/09/28 01:06:56;;;;;;;11.43;10.32;;;17.80;99.90;;;;;;5034933;28;20045;-72
2023/09/28 01:09:23;;;;;;;11.90;10.65;;;17.90;99.90;;;;;;5068886;28;20041;-72
2023/09/28 01:11:51;;;;;;;11.85;10.40;;;17.80;99.90;;;;;;5050376;28;20488;-71
2023/09/28 01:14:17;;;;;;;11.48;10.27;;;17.80;99.90;;;;;;5075378;28;20045;-71
2023/09/28 01:16:43;;;;;;;12.88;10.27;;;17.80;99.90;;;;;;5069712;28;20047;-71
2023/09/28 01:19:09;;;;;;;10.85;9.80;;;17.80;99.90;;;;;;5035836;28;20103;-71
2023/09/28 01:21:34;;;;;;;11.50;10.45;;;17.80;99.90;;;;;;5067792;28;20124;-71
2023/09/28 01:24:02;;;;;;;11.85;10.07;;;17.70;99.90;;;;;;5071717;28;20596;-72
2023/09/28 01:26:30;;;;;;;10.45;9.45;;;17.70;99.90;;;;;;5052236;28;20041;-71
2023/09/28 01:28:57;;;;;;;10.82;9.80;;;17.80;99.90;;;;;;5069675;28;20041;-71
2023/09/28 01:31:23;;;;;;;10.18;9.18;;;17.80;99.90;;;;;;5070695;28;20576;-72
2023/09/28 01:33:49;;;;;;;12.68;9.75;;;17.80;99.90;;;;;;5052158;28;20049;-71
2023/09/28 01:36:15;;;;;;;10.48;9.38;;;17.80;99.90;;;;;;5071247;28;20523;-72
2023/09/28 01:39:03;;;;;;;11.82;9.73;;;17.80;99.90;;;;;;5068894;28;20076;-72
2023/09/28 01:41:29;;;;;;;10.82;9.23;;;17.80;99.90;;;;;;5053745;28;20129;-72
2023/09/28 01:43:55;;;;;;;10.25;9.25;;;17.80;99.90;;;;;;5051985;28;20049;-72
2023/09/28 01:46:20;;;;;;;10.48;8.80;;;17.80;99.90;;;;;;5071085;28;20036;-72
2023/09/28 01:48:46;;;;;;;9.93;9.00;;;17.90;99.90;;;;;;5067310;28;20037;-72
2023/09/28 01:51:12;;;;;;;9.75;8.40;;;17.90;99.90;;;;;;5035650;28;20072;-72
2023/09/28 01:53:38;;;;;;;9.85;8.77;;;17.90;99.90;;;;;;5070574;28;20062;-72
2023/09/28 01:56:04;;;;;;;11.93;8.32;;;17.90;99.90;;;;;;5064174;28;20040;-72
2023/09/28 01:58:31;;;;;;;9.68;8.73;;;17.90;99.90;;;;;;5062991;28;20063;-72
2023/09/28 02:00:57;;;;;;;10.68;8.23;;;17.90;99.90;;;;;;5054721;28;20655;-72
2023/09/28 02:03:23;;;;;;;13.65;8.88;;;17.90;99.90;;;;;;5051817;28;20060;-71
2023/09/28 02:05:49;;;;;;;10.95;8.70;;;17.90;99.90;;;;;;5065999;28;20048;-72
2023/09/28 02:08:15;;;;;;;10.48;8.55;;;17.90;99.90;;;;;;5070961;28;20048;-73
2023/09/28 02:10:42;;;;;;;11.73;8.77;;;17.90;99.90;;;;;;5064460;28;20057;-72
2023/09/28 02:13:07;;;;;;;12.50;8.95;;;17.90;99.90;;;;;;5041754;28;20032;-72
2023/09/28 02:15:34;;;;;;;10.65;8.45;;;17.80;99.90;;;;;;5036979;28;20131;-72
2023/09/28 02:18:00;;;;;;;10.30;9.27;;;17.80;99.90;;;;;;5050961;28;20064;-72
2023/09/28 02:20:25;;;;;;;10.02;8.95;;;17.80;99.90;;;;;;5058770;28;20051;-72
2023/09/28 02:22:54;;;;;;;10.43;9.43;;;17.80;99.90;;;;;;5068079;28;20089;-72
2023/09/28 02:25:22;;;;;;;9.60;8.32;;;17.80;99.90;;;;;;5041777;28;20108;-72
2023/09/28 02:27:49;;;;;;;10.60;9.50;;;17.80;99.90;;;;;;5049645;28;20071;-71
2023/09/28 02:30:19;;;;;;;10.77;9.52;;;17.80;99.90;;;;;;5068003;28;20045;-72
2023/09/28 02:32:46;;;;;;;10.15;9.20;;;17.70;99.90;;;;;;5069174;28;20063;-73
2023/09/28 02:35:16;;;;;;;9.80;8.90;;;17.70;99.90;;;;;;5069190;28;20041;-71
2023/09/28 02:37:44;;;;;;;9.90;8.88;;;17.70;99.90;;;;;;5069231;28;20069;-72
2023/09/28 02:40:11;;;;;;;11.68;9.07;;;17.60;99.90;;;;;;5055115;28;20072;-72
2023/09/28 02:42:37;;;;;;;11.75;9.68;;;17.60;99.90;;;;;;5071952;28;20096;-72
2023/09/28 02:45:11;;;;;;;10.40;9.10;;;17.60;99.90;;;;;;5053368;28;20091;-72
2023/09/28 02:47:39;;;;;;;11.00;9.13;;;17.50;99.90;;;;;;5059245;28;20099;-72
2023/09/28 02:50:09;;;;;;;11.20;9.85;;;17.50;99.90;;;;;;5052198;28;20040;-72
2023/09/28 02:52:38;;;;;;;11.18;9.55;;;17.50;99.90;;;;;;5040082;28;20052;-71
2023/09/28 02:55:07;;;;;;;11.38;9.80;;;17.50;99.90;;;;;;5048737;28;20040;-72
2023/09/28 02:57:36;;;;;;;10.70;9.65;;;17.40;99.90;;;;;;5050805;28;20044;-72
2023/09/28 03:00:12;;;;;;;11.02;9.48;;;17.40;99.90;;;;;;5050440;28;20056;-72
2023/09/28 03:02:38;;;;;;;11.85;9.07;;;17.30;99.90;;;;;;5068083;28;20064;-72
2023/09/28 03:05:04;;;;;;;10.38;9.35;;;17.30;99.90;;;;;;5068778;28;20047;-73
2023/09/28 03:07:29;;;;;;;10.90;9.75;;;17.30;99.90;;;;;;5032607;28;20043;-72
2023/09/28 03:09:55;;;;;;;10.50;9.50;;;17.20;99.90;;;;;;5034249;28;20036;-72
2023/09/28 03:12:21;;;;;;;10.93;9.82;;;17.20;99.90;;;;;;5052148;28;20117;-72
2023/09/28 03:14:47;;;;;;;11.02;9.93;;;17.20;99.90;;;;;;5065800;28;20119;-73
2023/09/28 03:17:12;;;;;;;11.18;9.73;;;17.20;99.90;;;;;;5035033;28;20135;-72
2023/09/28 03:19:38;;;;;;;11.38;9.88;;;17.10;99.90;;;;;;5049701;28;20114;-73
2023/09/28 03:22:04;;;;;;;14.88;9.43;;;17.10;99.90;;;;;;5051921;28;20483;-73
2023/09/28 03:24:30;;;;;;;11.43;9.75;;;17.10;99.90;;;;;;5065504;28;20052;-73
2023/09/28 03:26:56;;;;;;;11.27;10.15;;;17.10;99.90;;;;;;5025464;28;20032;-72
2023/09/28 03:29:21;;;;;;;14.27;10.18;;;17.10;99.90;;;;;;5035071;28;20037;-72
2023/09/28 03:31:47;;;;;;;11.80;9.80;;;17.00;99.90;;;;;;5049572;28;20404;-72
2023/09/28 03:34:13;;;;;;;11.68;9.98;;;17.00;99.90;;;;;;5066045;28;20044;-72
2023/09/28 03:36:38;;;;;;;10.23;8.95;;;17.00;99.90;;;;;;5069388;28;20048;-73
2023/09/28 03:39:04;;;;;;;10.88;9.30;;;17.00;99.90;;;;;;5069102;28;20048;-73
2023/09/28 03:41:30;;;;;;;10.75;9.65;;;17.00;99.90;;;;;;5064759;28;20036;-72
2023/09/28 03:43:56;;;;;;;12.35;9.95;;;17.00;99.90;;;;;;5023014;28;20047;-72
2023/09/28 03:46:21;;;;;;;11.20;9.82;;;17.00;99.90;;;;;;5050785;28;20504;-71
2023/09/28 03:48:47;;;;;;;10.88;9.77;;;16.90;99.90;;;;;;5052052;28;20094;-73
2023/09/28 03:51:15;;;;;;;11.25;9.45;;;16.90;99.90;;;;;;5050157;28;20127;-72
2023/09/28 03:53:41;;;;;;;11.88;10.25;;;16.90;99.90;;;;;;5065567;28;20458;-73
2023/09/28 03:56:07;;;;;;;10.85;9.75;;;16.80;99.90;;;;;;5065867;28;20087;-72
2023/09/28 03:58:33;;;;;;;10.52;9.38;;;16.80;99.90;;;;;;5065854;28;20041;-72
2023/09/28 04:00:59;;;;;;;11.23;9.15;;;16.70;99.90;;;;;;5051198;28;20044;-72
2023/09/28 04:03:25;;;;;;;9.88;8.98;;;16.70;99.90;;;;;;5033878;28;20044;-72
2023/09/28 04:05:50;;;;;;;10.60;9.05;;;16.70;99.90;;;;;;5068483;28;20583;-72
2023/09/28 04:08:16;;;;;;;9.95;8.30;;;16.70;99.90;;;;;;5037858;28;20065;-72
2023/09/28 04:10:42;;;;;;;11.10;9.23;;;16.70;99.90;;;;;;5034809;28;20052;-72
2023/09/28 04:13:08;;;;;;;12.38;8.98;;;16.60;99.90;;;;;;5062883;28;20045;-72
2023/09/28 04:15:33;;;;;;;9.48;8.52;;;16.60;99.90;;;;;;5049558;28;20103;-72
2023/09/28 04:18:00;;;;;;;11.05;9.25;;;16.60;99.90;;;;;;5018874;28;20138;-72
2023/09/28 04:20:26;;;;;;;10.48;9.38;;;16.60;99.90;;;;;;5065619;28;20127;-73
2023/09/28 04:22:52;;;;;;;9.68;8.75;;;16.60;99.90;;;;;;5066272;28;20044;-73
2023/09/28 04:25:19;;;;;;;10.98;9.38;;;16.60;99.90;;;;;;5037990;28;20051;-73
2023/09/28 04:27:47;;;;;;;10.70;8.48;;;16.50;99.90;;;;;;5068565;28;20092;-73
2023/09/28 04:30:13;;;;;;;12.85;9.77;;;16.50;99.90;;;;;;5066290;28;20044;-73
2023/09/28 04:32:38;;;;;;;9.60;8.60;;;16.50;99.90;;;;;;5066370;28;20479;-73
2023/09/28 04:35:06;;;;;;;9.35;8.40;;;16.40;99.90;;;;;;5060208;28;20437;-73
2023/09/28 04:37:32;;;;;;;10.15;8.98;;;16.40;99.90;;;;;;5067307;28;20049;-73
2023/09/28 04:39:58;;;;;;;12.05;9.15;;;16.40;99.90;;;;;;5054346;28;20075;-72
2023/09/28 04:42:23;;;;;;;9.80;8.80;;;16.40;99.90;;;;;;5040081;28;20048;-72
2023/09/28 04:44:49;;;;;;;10.55;8.95;;;16.40;99.90;;;;;;5072393;28;20055;-73
2023/09/28 04:47:16;;;;;;;11.07;9.25;;;16.30;99.90;;;;;;5069766;28;20083;-72
2023/09/28 04:49:42;;;;;;;11.85;9.13;;;16.30;99.90;;;;;;5054745;28;20044;-72
2023/09/28 04:52:10;;;;;;;10.48;9.00;;;16.30;99.90;;;;;;5070038;28;20053;-73
2023/09/28 04:54:36;;;;;;;9.93;8.65;;;16.30;99.90;;;;;;5060088;28;20127;-73
2023/09/28 04:57:02;;;;;;;9.93;8.88;;;16.20;99.90;;;;;;5042753;28;20044;-74
2023/09/28 04:59:27;;;;;;;10.32;9.23;;;16.20;99.90;;;;;;5035952;28;20052;-74
2023/09/28 05:01:53;;;;;;;10.82;9.32;;;16.20;99.90;;;;;;5041420;28;20040;-74
2023/09/28 05:04:19;;;;;;;10.32;9.23;;;16.20;99.90;;;;;;5053188;28;20041;-73
2023/09/28 05:06:46;;;;;;;10.50;8.90;;;16.10;99.90;;;;;;5041728;28;20059;-73
2023/09/28 05:09:13;;;;;;;12.02;9.85;;;16.20;99.90;;;;;;5048917;28;20104;-73
2023/09/28 05:11:39;;;;;;;13.98;10.02;;;16.20;99.90;;;;;;5076675;28;20127;-73
2023/09/28 05:14:05;;;;;;;10.95;9.50;;;16.20;99.90;;;;;;5061214;28;20066;-73
2023/09/28 05:16:31;;;;;;;11.85;9.50;;;16.20;99.90;;;;;;5057796;28;20040;-73
2023/09/28 05:18:57;;;;;;;13.30;10.02;;;16.10;99.90;;;;;;5078647;28;20059;-73
2023/09/28 05:21:23;;;;;;;13.32;10.38;;;16.20;99.90;;;;;;5051778;28;20488;-74
2023/09/28 05:23:50;;;;;;;12.20;9.85;;;16.10;99.90;;;;;;5054994;28;20049;-74
2023/09/28 05:26:16;;;;;;;11.52;10.32;;;16.10;99.90;;;;;;5067465;28;21049;-74
2023/09/28 05:28:42;;;;;;;12.23;9.82;;;16.10;99.90;;;;;;5066091;28;20057;-74
2023/09/28 05:31:08;;;;;;;12.00;9.98;;;16.10;99.90;;;;;;5042084;28;20041;-74
2023/09/28 05:33:34;;;;;;;13.35;11.07;;;16.10;99.90;;;;;;5057140;28;20599;-74
2023/09/28 05:36:00;;;;;;;13.85;10.40;;;16.10;99.90;;;;;;5066972;28;20519;-74
2023/09/28 05:38:25;;;;;;;14.23;10.38;;;16.10;99.90;;;;;;5026205;28;20128;-75
2023/09/28 05:40:51;;;;;;;12.93;10.10;;;16.10;99.90;;;;;;5043091;28;20048;-74
2023/09/28 05:43:17;;;;;;;11.85;10.15;;;16.10;99.90;;;;;;5062624;28;20044;-73
2023/09/28 05:45:42;;;;;;;12.73;10.75;;;16.10;99.90;;;;;;5077559;28;20044;-73
2023/09/28 05:48:08;;;;;;;12.52;10.80;;;16.10;99.90;;;;;;5065403;28;20033;-73
2023/09/28 05:50:34;;;;;;;11.82;10.43;;;16.10;99.90;;;;;;5038821;28;20040;-72
2023/09/28 05:53:00;;;;;;;11.63;9.43;;;16.10;99.90;;;;;;5076054;28;20387;-73
2023/09/28 05:55:26;;;;;;;11.82;9.93;;;16.10;99.90;;;;;;5069233;28;20108;-73
2023/09/28 05:57:53;;;;;;;11.30;9.95;;;16.10;99.90;;;;;;5067502;28;20102;-73
2023/09/28 06:00:19;;;;;;;12.32;10.30;;;16.10;99.90;;;;;;5068306;28;20047;-74
2023/09/28 06:02:44;;;;;;;11.93;10.02;;;16.10;99.90;;;;;;5070046;28;20041;-73
2023/09/28 06:05:10;;;;;;;13.23;10.70;;;16.10;99.90;;;;;;5069557;28;20051;-73
2023/09/28 06:07:36;;;;;;;11.80;9.90;;;16.10;99.90;;;;;;5041121;28;20045;-73
2023/09/28 06:10:03;;;;;;;15.25;10.07;;;16.20;99.90;;;;;;5078289;28;20059;-73
2023/09/28 06:12:29;;;;;;;11.13;9.57;;;16.20;99.90;;;;;;5059081;28;20415;-72
2023/09/28 06:14:54;;;;;;;12.52;9.60;;;16.20;99.90;;;;;;5065951;28;20060;-73
2023/09/28 06:17:20;;;;;;;10.82;8.90;;;16.30;99.90;;;;;;5023778;28;20052;-75
2023/09/28 06:19:46;;;;;;;11.82;9.57;;;16.30;99.90;;;;;;5026127;28;20108;-72
2023/09/28 06:22:12;;;;;;;11.02;8.57;;;16.30;99.90;;;;;;5078346;28;20040;-73
2023/09/28 06:24:38;;;;;;;12.98;8.70;;;16.40;99.90;;;;;;5066734;28;20045;-72
2023/09/28 06:27:05;;;;;;;11.00;8.02;;;16.40;99.90;;;;;;5077596;28;20049;-73
2023/09/28 06:29:32;;;;;;;11.52;7.57;;;16.40;99.90;;;;;;5077083;28;20048;-73
2023/09/28 06:31:59;;;;;;;12.63;8.02;;;16.40;99.90;;;;;;5070726;28;20043;-73
2023/09/28 06:34:24;;;;;;;11.50;7.32;;;16.50;99.90;;;;;;5074001;28;20419;-73
2023/09/28 06:36:50;;;;;;;12.18;7.72;;;16.50;99.90;;;;;;5075593;28;20044;-73
2023/09/28 06:39:16;;;;;;;9.68;7.28;;;16.50;99.90;;;;;;5073032;28;20104;-73
2023/09/28 06:41:42;;;;;;;12.02;7.30;;;16.50;99.90;;;;;;5048503;28;20051;-72
2023/09/28 06:44:10;;;;;;;18.23;7.13;;;16.60;99.90;;;;;;5071401;28;20063;-73
2023/09/28 06:46:36;;;;;;;13.23;6.78;;;16.60;99.90;;;;;;5074484;28;20044;-73
2023/09/28 06:49:05;;;;;;;10.98;6.78;;;16.60;99.90;;;;;;5066695;28;20033;-73
2023/09/28 06:51:32;;;;;;;14.77;6.90;;;16.70;99.90;;;;;;5064787;28;20045;-73
2023/09/28 06:53:59;;;;;;;17.02;6.57;;;16.70;99.90;;;;;;5042192;28;20052;-73
2023/09/28 06:56:26;;;;;;;15.00;6.18;;;16.70;99.90;;;;;;5070363;28;20049;-74
2023/09/28 06:58:53;;;;;;;14.10;6.30;;;16.80;99.90;;;;;;5044596;28;20041;-73
2023/09/28 07:01:18;;;;;;;14.48;6.63;;;16.80;99.90;;;;;;5064731;28;20519;-73
2023/09/28 07:03:45;;;;;;;15.13;5.70;;;16.90;99.90;;;;;;5068293;28;20495;-73
2023/09/28 07:06:10;;;;;;;14.13;5.85;;;16.90;99.90;;;;;;5074790;28;20103;-73
2023/09/28 07:08:36;;;;;;;16.85;5.95;;;16.90;99.90;;;;;;5072259;28;20036;-73
2023/09/28 07:11:02;;;;;;;13.55;5.75;;;17.00;99.90;;;;;;5059704;28;20056;-73
2023/09/28 07:13:28;;;;;;;12.90;5.57;;;17.00;99.90;;;;;;5056956;28;20048;-73
2023/09/28 07:15:56;;;;;;;16.80;5.70;;;17.00;99.90;;;;;;5059896;28;20072;-73
2023/09/28 07:18:22;;;;;;;14.80;5.50;;;17.10;99.90;;;;;;5056179;28;20063;-72
2023/09/28 07:20:48;;;;;;;18.67;6.13;;;17.10;99.90;;;;;;5059250;28;20049;-73
2023/09/28 07:23:13;;;;;;;20.60;6.82;;;17.20;99.90;;;;;;5057281;28;20550;-73
2023/09/28 07:25:40;;;;;;;15.95;5.65;;;17.20;99.90;;;;;;5060069;28;20052;-72
2023/09/28 07:28:06;;;;;;;19.60;5.78;;;17.30;99.90;;;;;;5041030;28;20045;-73
2023/09/28 07:30:32;;;;;;;14.85;5.30;;;17.30;99.90;;;;;;5059266;28;20060;-73
2023/09/28 07:32:57;;;;;;;15.35;5.63;;;17.30;99.90;;;;;;5061677;28;20040;-73
2023/09/28 07:35:23;;;;;;;17.65;5.95;;;17.40;99.90;;;;;;5062811;28;20048;-73
2023/09/28 07:37:49;;;;;;;16.42;5.10;;;17.50;99.90;;;;;;5057841;28;20094;-74
2023/09/28 07:40:17;;;;;;;22.23;5.68;;;17.50;99.90;;;;;;5058203;28;20043;-74
2023/09/28 07:42:45;;;;;;;18.60;5.50;;;17.50;99.90;;;;;;5057448;28;20053;-73
2023/09/28 07:45:13;;;;;;;19.42;6.13;;;17.70;99.90;;;;;;5060503;28;20049;-73
2023/09/28 07:47:39;;;;;;;16.52;4.90;;;17.60;99.90;;;;;;5060404;28;20083;-74
2023/09/28 07:50:06;;;;;;;21.48;5.32;;;17.70;99.90;;;;;;5055137;28;21213;-73
2023/09/28 07:52:32;;;;;;;20.88;5.25;;;17.70;99.90;;;;;;5059592;28;20041;-74
2023/09/28 07:54:58;;;;;;;19.45;5.20;;;17.80;99.90;;;;;;5060983;28;20052;-73
2023/09/28 07:57:24;;;;;;;21.30;5.80;;;17.80;99.90;;;;;;5059469;28;20534;-74
2023/09/28 07:59:50;;;;;;;20.92;5.93;;;17.90;99.90;;;;;;5056398;28;20338;-74
2023/09/28 08:02:15;;;;;;;18.88;5.15;;;18.00;99.90;;;;;;5057686;28;20052;-73
2023/09/28 08:04:41;;;;;;;19.17;5.78;;;18.00;99.90;;;;;;5061860;28;20051;-72
2023/09/28 08:07:07;;;;;;;20.27;5.60;;;18.10;99.90;;;;;;5061405;28;20043;-73
2023/09/28 08:09:33;;;;;;;19.33;5.38;;;18.10;99.90;;;;;;5058208;28;20048;-74
2023/09/28 08:11:59;;;;;;;21.88;5.75;;;18.20;99.90;;;;;;5060898;28;20044;-73
2023/09/28 08:14:24;;;;;;;18.08;5.03;;;18.30;99.90;;;;;;5062009;28;20049;-73
2023/09/28 08:16:50;;;;;;;17.85;4.80;;;18.40;99.90;;;;;;5060916;28;20596;-73
2023/09/28 08:19:19;;;;;;;23.58;5.72;;;18.40;99.90;;;;;;5060479;28;20049;-74
2023/09/28 08:21:45;;;;;;;17.08;5.07;;;18.50;99.90;;;;;;5043720;28;20384;-73
2023/09/28 08:24:11;;;;;;;17.50;5.43;;;18.60;99.90;;;;;;5039455;28;20491;-74
2023/09/28 08:26:37;;;;;;;19.55;5.22;;;18.60;99.90;;;;;;5060280;28;20048;-73
2023/09/28 08:29:04;;;;;;;18.85;5.45;;;18.60;99.90;;;;;;5060353;28;20036;-73
2023/09/28 08:31:32;;;;;;;20.80;5.40;;;18.60;99.90;;;;;;5062485;28;20047;-74
2023/09/28 08:34:01;;;;;;;16.27;4.72;;;18.70;99.90;;;;;;5061249;28;20065;-73
2023/09/28 08:36:30;;;;;;;23.05;5.75;;;18.70;99.90;;;;;;5058286;28;20057;-74
2023/09/28 08:38:57;;;;;;;20.27;5.68;;;18.80;99.90;;;;;;5059829;28;20052;-73
2023/09/28 08:41:45;;;;;;;17.15;5.30;;;18.80;99.90;;;;;;5062841;28;20062;-73
2023/09/28 08:44:13;;;;;;;20.65;5.53;;;18.90;99.90;;;;;;5065215;28;20562;-74
2023/09/28 08:46:40;;;;;;;19.85;5.80;;;18.90;99.90;;;;;;5059506;28;20138;-75
2023/09/28 08:49:10;;;;;;;24.88;5.53;;;19.00;99.90;;;;;;5059873;28;20036;-73
2023/09/28 08:51:40;;;;;;;25.02;5.55;;;18.90;99.90;;;;;;5061261;28;20032;-77
2023/09/28 08:54:07;;;;;;;20.10;4.85;;;18.90;99.90;;;;;;5055951;28;20079;-72
2023/09/28 08:56:39;;;;;;;18.88;4.85;;;18.80;99.90;;;;;;5058115;28;20052;-72
2023/09/28 08:59:05;;;;;;;17.77;4.97;;;18.80;99.90;;;;;;5057522;28;20140;-73
2023/09/28 09:01:32;;;;;;;19.95;4.88;;;18.70;99.90;;;;;;5058027;28;20052;-72
2023/09/28 09:03:59;;;;;;;21.45;5.75;;;18.80;99.90;;;;;;5061139;28;21018;-73
2023/09/28 09:06:28;;;;;;;20.70;5.13;;;18.80;99.90;;;;;;5059172;28;20817;-72
2023/09/28 09:08:55;;;;;;;24.90;5.47;;;18.70;99.90;;;;;;5058959;28;20723;-73
2023/09/28 09:11:22;;;;;;;26.27;4.80;;;18.80;99.90;;;;;;5055862;28;20053;-72
2023/09/28 09:13:54;;;;;;;25.48;5.00;;;18.80;99.90;;;;;;5059118;28;20112;-72
2023/09/28 09:16:24;;;;;;;20.50;5.03;;;18.70;99.90;;;;;;5056308;28;20053;-72
2023/09/28 09:18:52;;;;;;;20.30;5.75;;;18.70;99.90;;;;;;5057969;28;20079;-72
2023/09/28 09:21:18;;;;;;;20.65;4.90;;;18.80;99.90;;;;;;5059522;28;20097;-72
2023/09/28 09:24:03;;;;;;;18.27;4.85;;;18.80;99.90;;;;;;5058259;28;20055;-72
2023/09/28 09:26:42;;;;;;;16.40;5.07;;;18.80;99.90;;;;;;5065348;28;20047;-72
2023/09/28 09:29:09;;;;;;;18.83;5.30;;;18.80;99.90;;;;;;5064163;28;20074;-72
2023/09/28 09:31:43;;;;;;;23.08;5.40;;;18.80;99.90;;;;;;5054025;28;20080;-72
2023/09/28 09:34:17;;;;;;;23.60;5.38;;;18.70;99.90;;;;;;5067374;28;20074;-73
2023/09/28 09:36:58;;;;;;;23.60;5.43;;;18.70;99.90;;;;;;5053003;28;20079;-72
2023/09/28 09:39:26;;;;;;;18.70;5.90;;;18.70;99.90;;;;;;5054903;28;20509;-72
2023/09/28 09:41:53;;;;;;;18.45;5.47;;;18.70;99.90;;;;;;5055496;28;20456;-72
2023/09/28 09:44:20;;;;;;;17.20;5.30;;;18.70;99.90;;;;;;5057036;28;20033;-73
2023/09/28 09:46:48;;;;;;;19.40;4.97;;;18.70;99.90;;;;;;5059496;28;20048;-72
2023/09/28 09:49:18;;;;;;;20.30;5.30;;;18.70;99.90;;;;;;5057130;28;20045;-72
2023/09/28 09:51:45;;;;;;;15.27;4.97;;;18.60;99.90;;;;;;5062988;28;20036;-72
2023/09/28 09:54:16;;;;;;;17.83;5.25;;;18.60;99.90;;;;;;5058677;28;20049;-73
2023/09/28 09:56:51;;;;;;;20.85;5.43;;;18.60;99.90;;;;;;5057953;28;21730;-72
2023/09/28 09:59:21;;;;;;;17.02;5.15;;;18.70;99.90;;;;;;5061904;28;20075;-72
2023/09/28 10:01:49;;;;;;;17.83;5.18;;;18.70;99.90;;;;;;5061528;28;20045;-72
2023/09/28 10:04:19;;;;;;;19.33;4.95;;;18.80;99.90;;;;;;5061753;28;20493;-72
2023/09/28 10:06:47;;;;;;;19.65;4.80;;;18.80;99.90;;;;;;5061855;28;20174;-72
2023/09/28 10:09:14;;;;;;;18.65;5.03;;;18.80;99.90;;;;;;5063846;28;20319;-72
2023/09/28 10:11:40;;;;;;;22.70;4.82;;;18.90;99.90;;;;;;5060953;28;20368;-72
2023/09/28 10:14:08;;;;;;;16.25;4.43;;;19.00;99.90;;;;;;5064150;28;20127;-72
2023/09/28 10:16:36;;;;;;;18.73;4.68;;;19.00;99.90;;;;;;5060511;28;20051;-71
2023/09/28 10:19:05;;;;;;;17.17;4.35;;;19.10;99.90;;;;;;5063383;28;20053;-72
2023/09/28 10:21:38;;;;;;;14.88;4.38;;;19.20;99.90;;;;;;5063337;28;20059;-72
2023/09/28 10:24:12;;;;;;;15.18;4.20;;;19.20;99.90;;;;;;5062013;28;20053;-72
2023/09/28 10:26:42;;;;;;;13.02;4.43;;;19.20;99.90;;;;;;5062468;28;20052;-72
2023/09/28 10:29:09;;;;;;;18.02;5.80;;;19.20;99.90;;;;;;5060395;28;20045;-73
2023/09/28 10:31:42;;;;;;;18.05;4.60;;;19.10;99.90;;;;;;5062693;28;20037;-72
2023/09/28 10:34:09;;;;;;;17.80;4.55;;;19.10;99.90;;;;;;5061497;28;20048;-72
2023/09/28 10:36:37;;;;;;;19.42;4.30;;;19.10;99.90;;;;;;5061155;28;20692;-72
2023/09/28 10:39:17;;;;;;;18.38;5.00;;;19.10;99.90;;;;;;5061682;28;20599;-73
2023/09/28 10:41:52;;;;;;;16.63;4.13;;;19.20;99.90;;;;;;5059307;28;20056;-71
2023/09/28 10:44:20;;;;;;;18.58;3.95;;;19.20;99.90;;;;;;5063834;28;20044;-72
2023/09/28 10:46:48;;;;;;;16.58;4.57;;;19.30;99.90;;;;;;5057302;28;20064;-71
2023/09/28 10:49:27;;;;;;;15.80;4.45;;;19.30;99.90;;;;;;5061346;28;20555;-72
2023/09/28 10:51:55;;;;;;;15.73;3.75;;;19.30;99.90;;;;;;5061848;28;20040;-71
2023/09/28 10:54:21;;;;;;;15.48;3.63;;;19.40;99.90;;;;;;5054154;28;20037;-72
2023/09/28 10:56:51;;;;;;;13.77;3.70;;;19.50;99.90;;;;;;5039797;28;20130;-72
2023/09/28 10:59:21;;;;;;;14.25;3.53;;;19.50;99.90;;;;;;5059096;28;20351;-72
2023/09/28 11:01:48;;;;;;;18.98;4.20;;;19.50;99.90;;;;;;5061813;28;20036;-72
2023/09/28 11:04:15;;;;;;;14.57;3.95;;;19.50;99.90;;;;;;5060161;28;20972;-72
2023/09/28 11:06:44;;;;;;;15.95;4.13;;;19.40;99.90;;;;;;5061628;28;20143;-72
2023/09/28 11:09:12;;;;;;;13.90;4.00;;;19.30;99.90;;;;;;5062769;28;20137;-72
2023/09/28 11:11:39;;;;;;;12.23;4.60;;;19.30;99.90;;;;;;5059615;28;20049;-73
2023/09/28 11:14:06;;;;;;;16.35;4.07;;;19.30;99.90;;;;;;5060266;28;20048;-72
2023/09/28 11:16:35;;;;;;;15.57;3.83;;;19.30;99.90;;;;;;5059204;28;20041;-72
2023/09/28 11:19:01;;;;;;;13.43;3.75;;;19.40;99.90;;;;;;5062717;28;20048;-72
2023/09/28 11:21:29;;;;;;;15.55;3.70;;;19.40;99.90;;;;;;5062085;28;20109;-72
2023/09/28 11:23:55;;;;;;;15.02;4.30;;;19.50;99.90;;;;;;5057612;28;20062;-72
2023/09/28 11:26:22;;;;;;;13.23;4.03;;;19.50;99.90;;;;;;5060317;28;20068;-72
2023/09/28 11:28:52;;;;;;;18.95;4.40;;;19.60;99.90;;;;;;5056861;28;20048;-72
2023/09/28 11:31:18;;;;;;;14.20;4.28;;;19.60;99.90;;;;;;5053428;28;20048;-72
2023/09/28 11:33:46;;;;;;;14.27;4.00;;;19.70;99.90;;;;;;5056195;28;20049;-72
2023/09/28 11:36:22;;;;;;;16.80;4.10;;;19.80;99.90;;;;;;5056863;28;20068;-73
2023/09/28 11:38:48;;;;;;;16.05;3.70;;;19.80;99.90;;;;;;5060458;28;20543;-72
2023/09/28 11:41:15;;;;;;;17.45;3.97;;;19.70;99.90;;;;;;5058084;28;20355;-72
2023/09/28 11:43:45;;;;;;;19.67;4.13;;;19.80;99.90;;;;;;5062336;28;20053;-72
2023/09/28 11:46:15;;;;;;;14.77;3.97;;;19.80;99.90;;;;;;5059893;28;20075;-72
2023/09/28 11:48:40;;;;;;;14.05;3.85;;;19.80;99.90;;;;;;5056001;28;21501;-72
2023/09/28 11:51:08;;;;;;;14.43;3.97;;;19.80;99.90;;;;;;5059839;28;20063;-72
2023/09/28 11:53:40;;;;;;;13.07;3.58;;;19.90;99.90;;;;;;5056634;28;20036;-72
2023/09/28 11:56:06;;;;;;;17.05;4.78;;;19.90;99.90;;;;;;5062223;28;20038;-73
2023/09/28 11:58:34;;;;;;;14.23;4.00;;;19.90;99.90;;;;;;5060094;28;20055;-73
2023/09/28 12:00:59;;;;;;;13.60;4.50;;;19.90;99.90;;;;;;5059745;28;20052;-73
2023/09/28 12:03:26;;;;;;;16.13;4.22;;;20.00;99.90;;;;;;5028883;28;20101;-73
2023/09/28 12:05:52;;;;;;;16.65;4.05;;;20.00;99.90;;;;;;5060034;28;20064;-72
2023/09/28 12:08:18;;;;;;;19.73;4.75;;;20.00;99.90;;;;;;5062788;28;20506;-72
2023/09/28 12:10:43;;;;;;;16.70;4.10;;;20.00;99.90;;;;;;5059227;28;20088;-73
2023/09/28 12:13:10;;;;;;;16.52;4.50;;;20.00;99.90;;;;;;5060167;28;20033;-73
2023/09/28 12:15:37;;;;;;;15.73;4.22;;;20.10;99.90;;;;;;5059034;28;20921;-72
2023/09/28 12:18:04;;;;;;;12.88;4.45;;;20.10;99.90;;;;;;5061543;28;20076;-72
2023/09/28 12:20:31;;;;;;;12.10;3.85;;;20.20;99.90;;;;;;5057949;28;20055;-71
2023/09/28 12:22:57;;;;;;;19.55;4.30;;;20.20;99.90;;;;;;5059820;28;20048;-72
2023/09/28 12:25:23;;;;;;;17.80;4.65;;;20.30;99.90;;;;;;5041864;28;20120;-72
2023/09/28 12:27:50;;;;;;;13.90;4.75;;;20.30;99.90;;;;;;5061086;28;20041;-73
2023/09/28 12:30:21;;;;;;;16.65;4.43;;;20.30;99.90;;;;;;5062434;28;20504;-72
2023/09/28 12:32:49;;;;;;;14.52;4.20;;;20.30;99.90;;;;;;5041350;28;20060;-72
2023/09/28 12:35:15;;;;;;;17.33;4.85;;;20.30;99.90;;;;;;5070547;28;20057;-72